sensor_id;sensor_type;location;lat;lon;timestamp;temperature;humidity
16663;DHT22;8445;51.270;9.434;2022-10-23T00:00:35;10.50;99.90
16663;DHT22;8445;51.270;9.434;2022-10-23T00:03:02;10.40;99.90
16663;DHT22;8445;51.270;9.434;2022-10-23T00:05:29;10.40;99.90
16663;DHT22;8445;51.270;9.434;2022-10-23T00:07:58;10.30;99.90
16663;DHT22;8445;51.270;9.434;2022-10-23T00:10:26;10.30;99.90
16663;DHT22;8445;51.270;9.434;2022-10-23T00:12:53;10.30;99.90
16663;DHT22;8445;51.270;9.434;2022-10-23T00:15:21;10.30;99.90
16663;DHT22;8445;51.270;9.434;2022-10-23T00:17:48;10.20;99.90
16663;DHT22;8445;51.270;9.434;2022-10-23T00:20:14;10.20;99.90
16663;DHT22;8445;51.270;9.434;2022-10-23T00:22:41;10.20;99.90
16663;DHT22;8445;51.270;9.434;2022-10-23T00:25:08;10.10;99.90
16663;DHT22;8445;51.270;9.434;2022-10-23T00:27:35;10.20;99.90
16663;DHT22;8445;51.270;9.434;2022-10-23T00:30:03;10.20;99.90
16663;DHT22;8445;51.270;9.434;2022-10-23T00:32:30;10.10;99.90
16663;DHT22;8445;51.270;9.434;2022-10-23T00:34:56;10.10;99.90
16663;DHT22;8445;51.270;9.434;2022-10-23T00:37:22;10.10;99.90
16663;DHT22;8445;51.270;9.434;2022-10-23T00:39:47;10.20;99.90
16663;DHT22;8445;51.270;9.434;2022-10-23T00:42:18;10.10;99.90
16663;DHT22;8445;51.270;9.434;2022-10-23T00:47:12;10.20;99.90
16663;DHT22;8445;51.270;9.434;2022-10-23T00:49:39;10.10;99.90
16663;DHT22;8445;51.270;9.434;2022-10-23T00:52:07;10.20;99.90
16663;DHT22;8445;51.270;9.434;2022-10-23T00:54:41;10.10;99.90
16663;DHT22;8445;51.270;9.434;2022-10-23T00:57:12;10.10;99.90
16663;DHT22;8445;51.270;9.434;2022-10-23T00:59:40;10.10;99.90
16663;DHT22;8445;51.270;9.434;2022-10-23T01:02:06;10.10;99.90
16663;DHT22;8445;51.270;9.434;2022-10-23T01:04:33;10.10;99.90
16663;DHT22;8445;51.270;9.434;2022-10-23T01:12:23;9.90;99.90
16663;DHT22;8445;51.270;9.434;2022-10-23T01:15:22;9.90;99.90
16663;DHT22;8445;51.270;9.434;2022-10-23T01:18:10;9.90;99.90
16663;DHT22;8445;51.270;9.434;2022-10-23T01:29:42;9.80;99.90
16663;DHT22;8445;51.270;9.434;2022-10-23T01:35:26;9.80;99.90
16663;DHT22;8445;51.270;9.434;2022-10-23T01:38:27;9.70;99.90
16663;DHT22;8445;51.270;9.434;2022-10-23T01:44:02;9.60;99.90
16663;DHT22;8445;51.270;9.434;2022-10-23T01:46:34;9.50;99.90
16663;DHT22;8445;51.270;9.434;2022-10-23T01:49:05;9.50;99.90
16663;DHT22;8445;51.270;9.434;2022-10-23T01:51:35;9.40;99.90
16663;DHT22;8445;51.270;9.434;2022-10-23T01:54:09;9.30;99.90
16663;DHT22;8445;51.270;9.434;2022-10-23T01:56:40;9.30;99.90
16663;DHT22;8445;51.270;9.434;2022-10-23T01:59:12;9.30;99.90
16663;DHT22;8445;51.270;9.434;2022-10-23T02:01:45;9.20;99.90
16663;DHT22;8445;51.270;9.434;2022-10-23T02:04:24;9.20;99.90
16663;DHT22;8445;51.270;9.434;2022-10-23T02:06:55;9.20;99.90
16663;DHT22;8445;51.270;9.434;2022-10-23T02:09:21;9.10;99.90
16663;DHT22;8445;51.270;9.434;2022-10-23T02:12:02;9.10;99.90
16663;DHT22;8445;51.270;9.434;2022-10-23T02:17:44;9.00;99.90
16663;DHT22;8445;51.270;9.434;2022-10-23T02:20:20;9.00;99.90
16663;DHT22;8445;51.270;9.434;2022-10-23T02:22:59;8.90;99.90
16663;DHT22;8445;51.270;9.434;2022-10-23T02:25:34;8.90;99.90
16663;DHT22;8445;51.270;9.434;2022-10-23T02:28:14;8.80;99.90
16663;DHT22;8445;51.270;9.434;2022-10-23T02:30:46;8.80;99.90
16663;DHT22;8445;51.270;9.434;2022-10-23T02:33:15;8.70;99.90
16663;DHT22;8445;51.270;9.434;2022-10-23T02:35:42;8.70;99.90
16663;DHT22;8445;51.270;9.434;2022-10-23T02:38:32;8.60;99.90
16663;DHT22;8445;51.270;9.434;2022-10-23T02:41:36;8.60;99.90
16663;DHT22;8445;51.270;9.434;2022-10-23T02:44:16;8.50;99.90
16663;DHT22;8445;51.270;9.434;2022-10-23T02:52:57;8.50;99.90
16663;DHT22;8445;51.270;9.434;2022-10-23T02:58:53;8.50;99.90
16663;DHT22;8445;51.270;9.434;2022-10-23T03:01:31;8.50;99.90
16663;DHT22;8445;51.270;9.434;2022-10-23T03:04:05;8.50;99.90
16663;DHT22;8445;51.270;9.434;2022-10-23T03:06:33;8.50;99.90
16663;DHT22;8445;51.270;9.434;2022-10-23T03:09:03;8.50;99.90
16663;DHT22;8445;51.270;9.434;2022-10-23T03:11:31;8.50;99.90
16663;DHT22;8445;51.270;9.434;2022-10-23T03:13:57;8.50;99.90
16663;DHT22;8445;51.270;9.434;2022-10-23T03:16:23;8.40;99.90
16663;DHT22;8445;51.270;9.434;2022-10-23T03:18:53;8.30;99.90
16663;DHT22;8445;51.270;9.434;2022-10-23T03:21:19;8.20;99.90
16663;DHT22;8445;51.270;9.434;2022-10-23T03:23:49;8.20;99.90
16663;DHT22;8445;51.270;9.434;2022-10-23T03:26:18;8.20;99.90
16663;DHT22;8445;51.270;9.434;2022-10-23T03:28:44;8.10;99.90
16663;DHT22;8445;51.270;9.434;2022-10-23T03:31:10;8.10;99.90
16663;DHT22;8445;51.270;9.434;2022-10-23T03:33:37;8.00;99.90
16663;DHT22;8445;51.270;9.434;2022-10-23T03:36:07;8.00;99.90
16663;DHT22;8445;51.270;9.434;2022-10-23T03:38:34;8.00;99.90
16663;DHT22;8445;51.270;9.434;2022-10-23T03:41:02;8.00;99.90
16663;DHT22;8445;51.270;9.434;2022-10-23T03:43:28;8.00;99.90
16663;DHT22;8445;51.270;9.434;2022-10-23T03:45:55;8.00;99.90
16663;DHT22;8445;51.270;9.434;2022-10-23T03:48:24;8.00;99.90
16663;DHT22;8445;51.270;9.434;2022-10-23T03:50:52;8.00;99.90
16663;DHT22;8445;51.270;9.434;2022-10-23T03:53:18;8.00;99.90
16663;DHT22;8445;51.270;9.434;2022-10-23T03:55:44;8.00;99.90
16663;DHT22;8445;51.270;9.434;2022-10-23T03:58:10;8.00;99.90
16663;DHT22;8445;51.270;9.434;2022-10-23T04:00:36;8.00;99.90
16663;DHT22;8445;51.270;9.434;2022-10-23T04:03:02;8.00;99.90
16663;DHT22;8445;51.270;9.434;2022-10-23T04:05:28;8.00;99.90
16663;DHT22;8445;51.270;9.434;2022-10-23T04:07:55;7.90;99.90
16663;DHT22;8445;51.270;9.434;2022-10-23T04:10:22;7.90;99.90
16663;DHT22;8445;51.270;9.434;2022-10-23T04:12:47;7.90;99.90
16663;DHT22;8445;51.270;9.434;2022-10-23T04:15:13;7.80;99.90
16663;DHT22;8445;51.270;9.434;2022-10-23T04:17:43;7.80;99.90
16663;DHT22;8445;51.270;9.434;2022-10-23T04:20:09;7.80;99.90
16663;DHT22;8445;51.270;9.434;2022-10-23T04:22:34;7.80;99.90
16663;DHT22;8445;51.270;9.434;2022-10-23T04:25:00;7.90;99.90
16663;DHT22;8445;51.270;9.434;2022-10-23T04:27:28;7.90;99.90
16663;DHT22;8445;51.270;9.434;2022-10-23T04:29:54;7.90;99.90
16663;DHT22;8445;51.270;9.434;2022-10-23T04:32:20;7.90;99.90
16663;DHT22;8445;51.270;9.434;2022-10-23T04:34:46;8.00;99.90
16663;DHT22;8445;51.270;9.434;2022-10-23T04:37:12;7.90;99.90
16663;DHT22;8445;51.270;9.434;2022-10-23T04:39:38;7.90;99.90
16663;DHT22;8445;51.270;9.434;2022-10-23T04:42:04;7.90;99.90
16663;DHT22;8445;51.270;9.434;2022-10-23T04:44:30;8.00;99.90
16663;DHT22;8445;51.270;9.434;2022-10-23T04:46:55;8.00;99.90
16663;DHT22;8445;51.270;9.434;2022-10-23T04:49:23;7.90;99.90
16663;DHT22;8445;51.270;9.434;2022-10-23T04:52:09;7.90;99.90
16663;DHT22;8445;51.270;9.434;2022-10-23T04:55:06;7.90;99.90
16663;DHT22;8445;51.270;9.434;2022-10-23T04:57:43;7.90;99.90
16663;DHT22;8445;51.270;9.434;2022-10-23T05:00:12;7.90;99.90
16663;DHT22;8445;51.270;9.434;2022-10-23T05:02:46;7.90;99.90
16663;DHT22;8445;51.270;9.434;2022-10-23T05:05:14;7.90;99.90
16663;DHT22;8445;51.270;9.434;2022-10-23T05:07:40;7.90;99.90
16663;DHT22;8445;51.270;9.434;2022-10-23T05:10:29;7.90;99.90
16663;DHT22;8445;51.270;9.434;2022-10-23T05:13:09;8.00;99.90
16663;DHT22;8445;51.270;9.434;2022-10-23T05:15:35;8.00;99.90
16663;DHT22;8445;51.270;9.434;2022-10-23T05:18:12;8.00;99.90
16663;DHT22;8445;51.270;9.434;2022-10-23T05:20:44;7.90;99.90
16663;DHT22;8445;51.270;9.434;2022-10-23T05:23:14;8.00;99.90
16663;DHT22;8445;51.270;9.434;2022-10-23T05:25:51;8.00;99.90
16663;DHT22;8445;51.270;9.434;2022-10-23T05:28:20;8.00;99.90
16663;DHT22;8445;51.270;9.434;2022-10-23T05:30:47;8.00;99.90
16663;DHT22;8445;51.270;9.434;2022-10-23T05:33:15;8.00;99.90
16663;DHT22;8445;51.270;9.434;2022-10-23T05:35:42;8.00;99.90
16663;DHT22;8445;51.270;9.434;2022-10-23T05:38:10;8.00;99.90
16663;DHT22;8445;51.270;9.434;2022-10-23T05:40:39;8.00;99.90
16663;DHT22;8445;51.270;9.434;2022-10-23T05:43:09;8.10;99.90
16663;DHT22;8445;51.270;9.434;2022-10-23T05:46:05;8.10;99.90
16663;DHT22;8445;51.270;9.434;2022-10-23T05:48:32;8.10;99.90
16663;DHT22;8445;51.270;9.434;2022-10-23T05:51:18;8.10;99.90
16663;DHT22;8445;51.270;9.434;2022-10-23T05:53:57;8.10;99.90
16663;DHT22;8445;51.270;9.434;2022-10-23T05:56:49;8.10;99.90
16663;DHT22;8445;51.270;9.434;2022-10-23T05:59:21;8.10;99.90
16663;DHT22;8445;51.270;9.434;2022-10-23T06:01:50;8.10;99.90
16663;DHT22;8445;51.270;9.434;2022-10-23T06:04:33;8.10;99.90
16663;DHT22;8445;51.270;9.434;2022-10-23T06:07:27;8.20;99.90
16663;DHT22;8445;51.270;9.434;2022-10-23T06:09:56;8.20;99.90
16663;DHT22;8445;51.270;9.434;2022-10-23T06:12:23;8.20;99.90
16663;DHT22;8445;51.270;9.434;2022-10-23T06:14:51;8.20;99.90
16663;DHT22;8445;51.270;9.434;2022-10-23T06:17:17;8.20;99.90
16663;DHT22;8445;51.270;9.434;2022-10-23T06:19:47;8.20;99.90
16663;DHT22;8445;51.270;9.434;2022-10-23T06:22:16;8.20;99.90
16663;DHT22;8445;51.270;9.434;2022-10-23T06:24:50;8.20;99.90
16663;DHT22;8445;51.270;9.434;2022-10-23T06:27:23;8.20;99.90
16663;DHT22;8445;51.270;9.434;2022-10-23T06:29:50;8.20;99.90
16663;DHT22;8445;51.270;9.434;2022-10-23T06:32:15;8.30;99.90
16663;DHT22;8445;51.270;9.434;2022-10-23T06:34:50;8.30;99.90
16663;DHT22;8445;51.270;9.434;2022-10-23T06:37:15;8.40;99.90
16663;DHT22;8445;51.270;9.434;2022-10-23T06:39:49;8.50;99.90
16663;DHT22;8445;51.270;9.434;2022-10-23T06:42:23;8.50;99.90
16663;DHT22;8445;51.270;9.434;2022-10-23T06:44:55;8.60;99.90
16663;DHT22;8445;51.270;9.434;2022-10-23T06:47:42;8.60;99.90
16663;DHT22;8445;51.270;9.434;2022-10-23T06:50:14;8.70;99.90
16663;DHT22;8445;51.270;9.434;2022-10-23T06:52:39;8.80;99.90
16663;DHT22;8445;51.270;9.434;2022-10-23T06:55:06;8.90;99.90
16663;DHT22;8445;51.270;9.434;2022-10-23T06:57:35;8.90;99.90
16663;DHT22;8445;51.270;9.434;2022-10-23T07:00:01;9.00;99.90
16663;DHT22;8445;51.270;9.434;2022-10-23T07:02:34;9.10;99.90
16663;DHT22;8445;51.270;9.434;2022-10-23T07:05:00;9.30;99.90
16663;DHT22;8445;51.270;9.434;2022-10-23T07:07:29;9.40;99.90
16663;DHT22;8445;51.270;9.434;2022-10-23T07:09:55;9.60;99.90
16663;DHT22;8445;51.270;9.434;2022-10-23T07:12:40;9.70;99.90
16663;DHT22;8445;51.270;9.434;2022-10-23T07:15:26;9.90;99.90
16663;DHT22;8445;51.270;9.434;2022-10-23T07:17:55;10.00;99.90
16663;DHT22;8445;51.270;9.434;2022-10-23T07:20:22;10.20;99.90
16663;DHT22;8445;51.270;9.434;2022-10-23T07:22:50;10.30;99.90
16663;DHT22;8445;51.270;9.434;2022-10-23T07:25:29;10.50;99.90
16663;DHT22;8445;51.270;9.434;2022-10-23T07:27:59;10.70;99.90
16663;DHT22;8445;51.270;9.434;2022-10-23T07:30:24;10.90;99.90
16663;DHT22;8445;51.270;9.434;2022-10-23T07:32:53;11.00;99.90
16663;DHT22;8445;51.270;9.434;2022-10-23T07:35:39;11.10;99.90
16663;DHT22;8445;51.270;9.434;2022-10-23T07:38:09;11.20;99.90
16663;DHT22;8445;51.270;9.434;2022-10-23T07:40:41;11.40;99.90
16663;DHT22;8445;51.270;9.434;2022-10-23T07:43:08;11.40;99.90
16663;DHT22;8445;51.270;9.434;2022-10-23T07:45:34;11.50;99.90
16663;DHT22;8445;51.270;9.434;2022-10-23T07:48:07;11.50;99.90
16663;DHT22;8445;51.270;9.434;2022-10-23T07:50:53;11.50;99.90
16663;DHT22;8445;51.270;9.434;2022-10-23T07:53:24;11.50;99.90
16663;DHT22;8445;51.270;9.434;2022-10-23T07:55:58;11.50;99.90
16663;DHT22;8445;51.270;9.434;2022-10-23T07:58:35;11.50;99.90
16663;DHT22;8445;51.270;9.434;2022-10-23T08:01:14;11.50;99.90
16663;DHT22;8445;51.270;9.434;2022-10-23T08:03:43;11.50;99.90
16663;DHT22;8445;51.270;9.434;2022-10-23T08:06:10;11.50;99.90
16663;DHT22;8445;51.270;9.434;2022-10-23T08:08:36;11.60;99.90
16663;DHT22;8445;51.270;9.434;2022-10-23T08:11:03;11.70;99.90
16663;DHT22;8445;51.270;9.434;2022-10-23T08:13:40;11.90;99.90
16663;DHT22;8445;51.270;9.434;2022-10-23T08:16:09;12.10;99.90
16663;DHT22;8445;51.270;9.434;2022-10-23T08:18:54;12.30;99.90
16663;DHT22;8445;51.270;9.434;2022-10-23T08:21:20;12.60;99.90
16663;DHT22;8445;51.270;9.434;2022-10-23T08:23:47;12.90;99.90
16663;DHT22;8445;51.270;9.434;2022-10-23T08:26:16;13.20;99.90
16663;DHT22;8445;51.270;9.434;2022-10-23T08:28:44;13.50;99.90
16663;DHT22;8445;51.270;9.434;2022-10-23T08:31:12;13.70;99.90
16663;DHT22;8445;51.270;9.434;2022-10-23T08:33:47;13.80;99.90
16663;DHT22;8445;51.270;9.434;2022-10-23T08:36:26;14.00;99.90
16663;DHT22;8445;51.270;9.434;2022-10-23T08:38:54;14.00;99.90
16663;DHT22;8445;51.270;9.434;2022-10-23T08:41:29;14.20;99.90
16663;DHT22;8445;51.270;9.434;2022-10-23T08:44:30;14.20;99.90
16663;DHT22;8445;51.270;9.434;2022-10-23T08:47:10;14.30;99.90
16663;DHT22;8445;51.270;9.434;2022-10-23T08:50:21;14.50;99.90
16663;DHT22;8445;51.270;9.434;2022-10-23T08:53:15;14.70;99.90
16663;DHT22;8445;51.270;9.434;2022-10-23T08:55:55;15.00;99.90
16663;DHT22;8445;51.270;9.434;2022-10-23T08:58:40;15.40;99.90
16663;DHT22;8445;51.270;9.434;2022-10-23T09:01:32;15.80;99.90
16663;DHT22;8445;51.270;9.434;2022-10-23T09:04:03;16.30;99.90
16663;DHT22;8445;51.270;9.434;2022-10-23T09:06:38;16.70;99.90
16663;DHT22;8445;51.270;9.434;2022-10-23T09:09:30;17.00;99.90
16663;DHT22;8445;51.270;9.434;2022-10-23T09:17:25;17.70;99.70
16663;DHT22;8445;51.270;9.434;2022-10-23T09:20:20;17.90;99.30
16663;DHT22;8445;51.270;9.434;2022-10-23T09:22:54;18.10;99.30
16663;DHT22;8445;51.270;9.434;2022-10-23T09:25:38;18.20;99.00
16663;DHT22;8445;51.270;9.434;2022-10-23T09:28:10;18.20;98.90
16663;DHT22;8445;51.270;9.434;2022-10-23T09:30:45;18.20;99.00
16663;DHT22;8445;51.270;9.434;2022-10-23T09:35:57;18.20;99.40
16663;DHT22;8445;51.270;9.434;2022-10-23T09:49:33;18.80;98.80
16663;DHT22;8445;51.270;9.434;2022-10-23T09:52:24;19.00;98.50
16663;DHT22;8445;51.270;9.434;2022-10-23T09:54:58;19.00;98.30
16663;DHT22;8445;51.270;9.434;2022-10-23T09:59:58;19.20;98.00
16663;DHT22;8445;51.270;9.434;2022-10-23T10:02:37;19.30;98.00
16663;DHT22;8445;51.270;9.434;2022-10-23T10:05:37;19.50;97.90
16663;DHT22;8445;51.270;9.434;2022-10-23T10:16:50;19.60;97.20
16663;DHT22;8445;51.270;9.434;2022-10-23T10:19:41;19.70;97.50
16663;DHT22;8445;51.270;9.434;2022-10-23T10:23:03;19.70;97.30
16663;DHT22;8445;51.270;9.434;2022-10-23T10:28:29;19.60;97.40
16663;DHT22;8445;51.270;9.434;2022-10-23T10:30:59;19.50;97.40
16663;DHT22;8445;51.270;9.434;2022-10-23T10:34:16;19.50;97.70
16663;DHT22;8445;51.270;9.434;2022-10-23T10:41:18;19.40;97.60
16663;DHT22;8445;51.270;9.434;2022-10-23T10:46:39;19.30;98.20
16663;DHT22;8445;51.270;9.434;2022-10-23T10:52:50;19.40;97.90
16663;DHT22;8445;51.270;9.434;2022-10-23T10:55:40;19.50;98.00
16663;DHT22;8445;51.270;9.434;2022-10-23T11:01:36;19.70;97.80
16663;DHT22;8445;51.270;9.434;2022-10-23T11:05:04;20.00;97.90
16663;DHT22;8445;51.270;9.434;2022-10-23T11:07:19;20.30;97.40
16663;DHT22;8445;51.270;9.434;2022-10-23T11:09:49;20.60;96.90
16663;DHT22;8445;51.270;9.434;2022-10-23T11:12:21;20.80;96.60
16663;DHT22;8445;51.270;9.434;2022-10-23T11:14:49;21.00;96.20
16663;DHT22;8445;51.270;9.434;2022-10-23T11:17:26;21.10;96.30
16663;DHT22;8445;51.270;9.434;2022-10-23T11:20:15;21.20;95.90
16663;DHT22;8445;51.270;9.434;2022-10-23T11:23:03;21.40;95.90
16663;DHT22;8445;51.270;9.434;2022-10-23T11:32:03;21.70;95.80
16663;DHT22;8445;51.270;9.434;2022-10-23T11:38:34;21.80;95.40
16663;DHT22;8445;51.270;9.434;2022-10-23T11:41:23;21.80;95.20
16663;DHT22;8445;51.270;9.434;2022-10-23T11:43:55;21.80;95.40
16663;DHT22;8445;51.270;9.434;2022-10-23T11:48:56;21.90;95.30
16663;DHT22;8445;51.270;9.434;2022-10-23T11:51:37;21.90;95.30
16663;DHT22;8445;51.270;9.434;2022-10-23T11:54:20;21.80;94.70
16663;DHT22;8445;51.270;9.434;2022-10-23T12:05:46;21.70;94.90
16663;DHT22;8445;51.270;9.434;2022-10-23T12:07:58;21.70;94.80
16663;DHT22;8445;51.270;9.434;2022-10-23T12:10:45;21.70;95.10
16663;DHT22;8445;51.270;9.434;2022-10-23T12:16:04;21.50;94.90
16663;DHT22;8445;51.270;9.434;2022-10-23T12:18:53;21.40;95.00
16663;DHT22;8445;51.270;9.434;2022-10-23T12:21:25;21.30;95.10
16663;DHT22;8445;51.270;9.434;2022-10-23T12:29:42;21.10;95.40
16663;DHT22;8445;51.270;9.434;2022-10-23T12:38:45;20.90;94.80
16663;DHT22;8445;51.270;9.434;2022-10-23T12:41:20;20.80;95.70
16663;DHT22;8445;51.270;9.434;2022-10-23T12:44:01;20.70;95.10
16663;DHT22;8445;51.270;9.434;2022-10-23T12:46:32;20.70;95.10
16663;DHT22;8445;51.270;9.434;2022-10-23T12:49:11;20.60;95.10
16663;DHT22;8445;51.270;9.434;2022-10-23T12:51:39;20.50;95.10
16663;DHT22;8445;51.270;9.434;2022-10-23T12:54:17;20.50;95.10
16663;DHT22;8445;51.270;9.434;2022-10-23T12:56:45;20.50;94.90
16663;DHT22;8445;51.270;9.434;2022-10-23T12:59:17;20.20;95.20
16663;DHT22;8445;51.270;9.434;2022-10-23T13:01:45;19.90;95.30
16663;DHT22;8445;51.270;9.434;2022-10-23T13:06:51;19.50;95.90
16663;DHT22;8445;51.270;9.434;2022-10-23T13:09:23;19.50;96.10
16663;DHT22;8445;51.270;9.434;2022-10-23T13:15:00;19.40;95.90
16663;DHT22;8445;51.270;9.434;2022-10-23T13:20:28;19.50;95.80
16663;DHT22;8445;51.270;9.434;2022-10-23T13:23:31;19.70;95.70
16663;DHT22;8445;51.270;9.434;2022-10-23T13:26:04;19.70;95.30
16663;DHT22;8445;51.270;9.434;2022-10-23T13:28:51;19.60;95.30
16663;DHT22;8445;51.270;9.434;2022-10-23T13:36:25;20.20;95.20
16663;DHT22;8445;51.270;9.434;2022-10-23T13:41:45;20.70;94.70
16663;DHT22;8445;51.270;9.434;2022-10-23T13:44:18;20.80;94.30
16663;DHT22;8445;51.270;9.434;2022-10-23T13:46:46;20.80;94.20
16663;DHT22;8445;51.270;9.434;2022-10-23T13:49:13;20.80;94.40
16663;DHT22;8445;51.270;9.434;2022-10-23T13:54:25;20.70;94.40
16663;DHT22;8445;51.270;9.434;2022-10-23T13:56:54;20.70;94.40
16663;DHT22;8445;51.270;9.434;2022-10-23T13:59:21;20.70;94.40
16663;DHT22;8445;51.270;9.434;2022-10-23T14:01:48;20.80;94.30
16663;DHT22;8445;51.270;9.434;2022-10-23T14:04:16;20.90;94.10
16663;DHT22;8445;51.270;9.434;2022-10-23T14:06:43;20.90;94.10
16663;DHT22;8445;51.270;9.434;2022-10-23T14:09:13;20.90;94.00
16663;DHT22;8445;51.270;9.434;2022-10-23T14:11:44;20.80;94.00
16663;DHT22;8445;51.270;9.434;2022-10-23T14:14:13;20.70;94.00
16663;DHT22;8445;51.270;9.434;2022-10-23T14:16:39;20.60;93.90
16663;DHT22;8445;51.270;9.434;2022-10-23T14:19:04;20.50;94.00
16663;DHT22;8445;51.270;9.434;2022-10-23T14:21:33;20.30;94.20
16663;DHT22;8445;51.270;9.434;2022-10-23T14:23:59;20.20;94.00
16663;DHT22;8445;51.270;9.434;2022-10-23T14:26:26;20.10;94.20
16663;DHT22;8445;51.270;9.434;2022-10-23T14:28:55;20.10;94.10
16663;DHT22;8445;51.270;9.434;2022-10-23T14:31:22;20.00;94.20
16663;DHT22;8445;51.270;9.434;2022-10-23T14:33:53;20.00;94.20
16663;DHT22;8445;51.270;9.434;2022-10-23T14:36:23;20.00;94.00
16663;DHT22;8445;51.270;9.434;2022-10-23T14:38:54;20.10;94.10
16663;DHT22;8445;51.270;9.434;2022-10-23T14:41:21;20.10;93.90
16663;DHT22;8445;51.270;9.434;2022-10-23T14:43:48;20.00;93.90
16663;DHT22;8445;51.270;9.434;2022-10-23T14:46:16;19.90;93.90
16663;DHT22;8445;51.270;9.434;2022-10-23T14:48:45;19.80;94.00
16663;DHT22;8445;51.270;9.434;2022-10-23T14:51:17;19.60;94.00
16663;DHT22;8445;51.270;9.434;2022-10-23T14:53:46;19.50;94.00
16663;DHT22;8445;51.270;9.434;2022-10-23T14:56:14;19.40;94.10
16663;DHT22;8445;51.270;9.434;2022-10-23T14:58:40;19.30;94.30
16663;DHT22;8445;51.270;9.434;2022-10-23T15:01:08;19.20;94.20
16663;DHT22;8445;51.270;9.434;2022-10-23T15:03:35;19.10;94.30
16663;DHT22;8445;51.270;9.434;2022-10-23T15:06:01;19.00;94.20
16663;DHT22;8445;51.270;9.434;2022-10-23T15:08:28;18.90;94.30
16663;DHT22;8445;51.270;9.434;2022-10-23T15:10:54;18.90;94.20
16663;DHT22;8445;51.270;9.434;2022-10-23T15:13:24;18.80;94.30
16663;DHT22;8445;51.270;9.434;2022-10-23T15:16:03;18.80;94.30
16663;DHT22;8445;51.270;9.434;2022-10-23T15:18:32;18.70;94.10
16663;DHT22;8445;51.270;9.434;2022-10-23T15:20:59;18.60;94.30
16663;DHT22;8445;51.270;9.434;2022-10-23T15:23:25;18.50;94.20
16663;DHT22;8445;51.270;9.434;2022-10-23T15:25:58;18.40;94.20
16663;DHT22;8445;51.270;9.434;2022-10-23T15:28:25;18.10;94.10
16663;DHT22;8445;51.270;9.434;2022-10-23T15:30:52;18.00;94.30
16663;DHT22;8445;51.270;9.434;2022-10-23T15:33:18;17.80;94.40
16663;DHT22;8445;51.270;9.434;2022-10-23T15:35:44;17.60;94.80
16663;DHT22;8445;51.270;9.434;2022-10-23T15:38:10;17.40;94.50
16663;DHT22;8445;51.270;9.434;2022-10-23T15:40:36;17.30;94.60
16663;DHT22;8445;51.270;9.434;2022-10-23T15:43:02;17.10;94.70
16663;DHT22;8445;51.270;9.434;2022-10-23T15:45:30;17.00;94.70
16663;DHT22;8445;51.270;9.434;2022-10-23T15:47:56;16.90;94.80
16663;DHT22;8445;51.270;9.434;2022-10-23T15:50:22;16.70;94.80
16663;DHT22;8445;51.270;9.434;2022-10-23T15:52:49;16.60;94.80
16663;DHT22;8445;51.270;9.434;2022-10-23T15:55:16;16.50;94.80
16663;DHT22;8445;51.270;9.434;2022-10-23T15:57:42;16.40;94.80
16663;DHT22;8445;51.270;9.434;2022-10-23T16:00:09;16.20;94.90
16663;DHT22;8445;51.270;9.434;2022-10-23T16:02:37;16.10;94.90
16663;DHT22;8445;51.270;9.434;2022-10-23T16:05:04;16.00;95.00
16663;DHT22;8445;51.270;9.434;2022-10-23T16:07:30;15.90;95.10
16663;DHT22;8445;51.270;9.434;2022-10-23T16:09:56;15.80;95.20
16663;DHT22;8445;51.270;9.434;2022-10-23T16:12:22;15.60;95.20
16663;DHT22;8445;51.270;9.434;2022-10-23T16:14:48;15.50;95.30
16663;DHT22;8445;51.270;9.434;2022-10-23T16:17:16;15.30;95.30
16663;DHT22;8445;51.270;9.434;2022-10-23T16:19:44;15.30;95.40
16663;DHT22;8445;51.270;9.434;2022-10-23T16:22:10;15.10;95.50
16663;DHT22;8445;51.270;9.434;2022-10-23T16:24:37;15.10;95.60
16663;DHT22;8445;51.270;9.434;2022-10-23T16:27:03;15.00;95.60
16663;DHT22;8445;51.270;9.434;2022-10-23T16:29:29;15.00;95.70
16663;DHT22;8445;51.270;9.434;2022-10-23T16:31:56;14.90;95.80
16663;DHT22;8445;51.270;9.434;2022-10-23T16:34:24;14.90;95.80
16663;DHT22;8445;51.270;9.434;2022-10-23T16:36:51;14.90;95.80
16663;DHT22;8445;51.270;9.434;2022-10-23T16:39:43;14.90;95.80
16663;DHT22;8445;51.270;9.434;2022-10-23T16:42:27;14.80;95.90
16663;DHT22;8445;51.270;9.434;2022-10-23T16:45:08;14.80;95.90
16663;DHT22;8445;51.270;9.434;2022-10-23T16:47:34;14.80;96.00
16663;DHT22;8445;51.270;9.434;2022-10-23T16:50:00;14.80;96.00
16663;DHT22;8445;51.270;9.434;2022-10-23T16:52:27;14.80;96.00
16663;DHT22;8445;51.270;9.434;2022-10-23T16:54:53;14.80;96.10
16663;DHT22;8445;51.270;9.434;2022-10-23T16:57:19;14.80;96.10
16663;DHT22;8445;51.270;9.434;2022-10-23T16:59:45;14.90;96.30
16663;DHT22;8445;51.270;9.434;2022-10-23T17:02:11;14.90;96.10
16663;DHT22;8445;51.270;9.434;2022-10-23T17:04:38;14.90;96.10
16663;DHT22;8445;51.270;9.434;2022-10-23T17:07:05;14.90;96.10
16663;DHT22;8445;51.270;9.434;2022-10-23T17:09:31;14.90;96.20
16663;DHT22;8445;51.270;9.434;2022-10-23T17:11:58;14.90;96.20
16663;DHT22;8445;51.270;9.434;2022-10-23T17:14:25;14.90;96.30
16663;DHT22;8445;51.270;9.434;2022-10-23T17:16:57;14.90;96.30
16663;DHT22;8445;51.270;9.434;2022-10-23T17:19:26;14.80;96.30
16663;DHT22;8445;51.270;9.434;2022-10-23T17:21:54;14.80;96.40
16663;DHT22;8445;51.270;9.434;2022-10-23T17:24:21;14.80;96.40
16663;DHT22;8445;51.270;9.434;2022-10-23T17:26:47;14.90;96.40
16663;DHT22;8445;51.270;9.434;2022-10-23T17:29:14;14.90;96.40
16663;DHT22;8445;51.270;9.434;2022-10-23T17:31:42;14.90;96.50
16663;DHT22;8445;51.270;9.434;2022-10-23T17:34:12;14.90;96.50
16663;DHT22;8445;51.270;9.434;2022-10-23T17:36:43;15.00;96.50
16663;DHT22;8445;51.270;9.434;2022-10-23T17:39:14;15.00;96.60
16663;DHT22;8445;51.270;9.434;2022-10-23T17:41:42;15.00;96.50
16663;DHT22;8445;51.270;9.434;2022-10-23T17:44:09;15.00;96.50
16663;DHT22;8445;51.270;9.434;2022-10-23T17:46:36;15.00;96.50
16663;DHT22;8445;51.270;9.434;2022-10-23T17:49:03;15.10;96.50
16663;DHT22;8445;51.270;9.434;2022-10-23T17:51:31;15.10;96.50
16663;DHT22;8445;51.270;9.434;2022-10-23T17:54:02;15.10;96.50
16663;DHT22;8445;51.270;9.434;2022-10-23T17:56:31;15.10;96.60
16663;DHT22;8445;51.270;9.434;2022-10-23T17:59:01;15.20;96.60
16663;DHT22;8445;51.270;9.434;2022-10-23T18:01:32;15.20;96.50
16663;DHT22;8445;51.270;9.434;2022-10-23T18:04:01;15.20;96.60
16663;DHT22;8445;51.270;9.434;2022-10-23T18:06:31;15.20;96.60
16663;DHT22;8445;51.270;9.434;2022-10-23T18:09:02;15.20;96.60
16663;DHT22;8445;51.270;9.434;2022-10-23T18:11:32;15.20;96.60
16663;DHT22;8445;51.270;9.434;2022-10-23T18:14:01;15.30;96.60
16663;DHT22;8445;51.270;9.434;2022-10-23T18:16:28;15.30;96.60
16663;DHT22;8445;51.270;9.434;2022-10-23T18:18:55;15.30;96.60
16663;DHT22;8445;51.270;9.434;2022-10-23T18:21:22;15.30;96.60
16663;DHT22;8445;51.270;9.434;2022-10-23T18:23:49;15.30;96.70
16663;DHT22;8445;51.270;9.434;2022-10-23T18:26:18;15.30;96.70
16663;DHT22;8445;51.270;9.434;2022-10-23T18:28:48;15.30;96.70
16663;DHT22;8445;51.270;9.434;2022-10-23T18:31:16;15.30;96.70
16663;DHT22;8445;51.270;9.434;2022-10-23T18:33:43;15.30;96.70
16663;DHT22;8445;51.270;9.434;2022-10-23T18:36:21;15.30;96.70
16663;DHT22;8445;51.270;9.434;2022-10-23T18:38:49;15.30;96.80
16663;DHT22;8445;51.270;9.434;2022-10-23T18:41:16;15.30;96.80